Terminal Aerodrome Forecast
Issued by NWS

Home | Current Version | Previous Version | Text Only | Print | Product List | Glossary On
Versions: 1 2 3 4 5 6 7 8 9 10 11 12 13 14 15 16 17 18 19 20 21 22 23
000
FTUS45 KABQ 300700 AAA
TAFSAF
TAF AMD
KSAF 300751Z 3008/3106 34008KT P6SM VCSH SCT060 BKN080
      TEMPO 3008/3010 VRB15G25KT 6SM -TSRA BKN060CB
     FM301000 35008KT P6SM SCT080
     FM301800 30010KT P6SM FEW080
     FM310000 15011G18KT P6SM VCTS SCT070CB SCT150
     FM310300 14015G23KT P6SM VCSH SCT060 BKN130=

USA.gov is the U.S. government's official web portal to all federal, state and local government web resources and services.